sensor_id;sensor_type;location;lat;lon;timestamp;P1;durP1;ratioP1;P2;durP2;ratioP2
15096;SDS011;7649;52.084;7.478;2023-04-10T00:00:47;58.10;;;44.73;;
15096;SDS011;7649;52.084;7.478;2023-04-10T00:03:22;57.87;;;44.27;;
15096;SDS011;7649;52.084;7.478;2023-04-10T00:05:52;60.20;;;46.90;;
15096;SDS011;7649;52.084;7.478;2023-04-10T00:08:21;58.53;;;45.50;;
15096;SDS011;7649;52.084;7.478;2023-04-10T00:10:49;61.17;;;47.43;;
15096;SDS011;7649;52.084;7.478;2023-04-10T00:13:18;66.03;;;49.77;;
15096;SDS011;7649;52.084;7.478;2023-04-10T00:15:47;68.00;;;51.07;;
15096;SDS011;7649;52.084;7.478;2023-04-10T00:18:15;69.90;;;51.53;;
15096;SDS011;7649;52.084;7.478;2023-04-10T00:20:44;70.97;;;53.27;;
15096;SDS011;7649;52.084;7.478;2023-04-10T00:23:13;75.70;;;52.03;;
15096;SDS011;7649;52.084;7.478;2023-04-10T00:25:42;74.93;;;53.17;;
15096;SDS011;7649;52.084;7.478;2023-04-10T00:28:10;71.47;;;51.97;;
15096;SDS011;7649;52.084;7.478;2023-04-10T00:30:39;69.57;;;52.20;;
15096;SDS011;7649;52.084;7.478;2023-04-10T00:33:07;74.07;;;52.47;;
15096;SDS011;7649;52.084;7.478;2023-04-10T00:35:36;73.07;;;52.80;;
15096;SDS011;7649;52.084;7.478;2023-04-10T00:38:04;75.90;;;53.27;;
15096;SDS011;7649;52.084;7.478;2023-04-10T00:40:34;76.77;;;54.17;;
15096;SDS011;7649;52.084;7.478;2023-04-10T00:43:02;80.57;;;55.57;;
15096;SDS011;7649;52.084;7.478;2023-04-10T00:45:30;76.23;;;55.27;;
15096;SDS011;7649;52.084;7.478;2023-04-10T00:47:59;80.07;;;57.07;;
15096;SDS011;7649;52.084;7.478;2023-04-10T00:50:27;76.37;;;55.40;;
15096;SDS011;7649;52.084;7.478;2023-04-10T00:52:55;78.77;;;54.93;;
15096;SDS011;7649;52.084;7.478;2023-04-10T00:55:24;78.53;;;54.93;;
15096;SDS011;7649;52.084;7.478;2023-04-10T00:57:54;73.93;;;52.40;;
15096;SDS011;7649;52.084;7.478;2023-04-10T01:00:23;73.13;;;51.93;;
15096;SDS011;7649;52.084;7.478;2023-04-10T01:02:52;74.53;;;52.37;;
15096;SDS011;7649;52.084;7.478;2023-04-10T01:05:21;70.10;;;51.80;;
15096;SDS011;7649;52.084;7.478;2023-04-10T01:08:00;67.63;;;50.67;;
15096;SDS011;7649;52.084;7.478;2023-04-10T01:10:32;64.97;;;50.77;;
15096;SDS011;7649;52.084;7.478;2023-04-10T01:13:05;72.10;;;51.17;;
15096;SDS011;7649;52.084;7.478;2023-04-10T01:15:37;71.33;;;50.50;;
15096;SDS011;7649;52.084;7.478;2023-04-10T01:18:08;69.60;;;49.83;;
15096;SDS011;7649;52.084;7.478;2023-04-10T01:20:38;72.20;;;51.03;;
15096;SDS011;7649;52.084;7.478;2023-04-10T01:23:24;76.43;;;54.43;;
15096;SDS011;7649;52.084;7.478;2023-04-10T01:25:56;79.27;;;53.07;;
15096;SDS011;7649;52.084;7.478;2023-04-10T01:31:00;78.53;;;53.37;;
15096;SDS011;7649;52.084;7.478;2023-04-10T01:33:31;75.40;;;54.23;;
15096;SDS011;7649;52.084;7.478;2023-04-10T01:36:02;81.43;;;55.07;;
15096;SDS011;7649;52.084;7.478;2023-04-10T01:38:31;72.73;;;53.37;;
15096;SDS011;7649;52.084;7.478;2023-04-10T01:41:01;78.13;;;54.73;;
15096;SDS011;7649;52.084;7.478;2023-04-10T01:43:30;81.47;;;55.30;;
15096;SDS011;7649;52.084;7.478;2023-04-10T01:46:00;78.00;;;53.67;;
15096;SDS011;7649;52.084;7.478;2023-04-10T01:48:29;78.93;;;53.20;;
15096;SDS011;7649;52.084;7.478;2023-04-10T01:50:59;73.60;;;53.57;;
15096;SDS011;7649;52.084;7.478;2023-04-10T01:53:28;76.07;;;53.63;;
15096;SDS011;7649;52.084;7.478;2023-04-10T01:55:56;78.43;;;54.47;;
15096;SDS011;7649;52.084;7.478;2023-04-10T01:58:25;73.13;;;53.97;;
15096;SDS011;7649;52.084;7.478;2023-04-10T02:00:53;75.90;;;54.30;;
15096;SDS011;7649;52.084;7.478;2023-04-10T02:03:23;71.33;;;53.30;;
15096;SDS011;7649;52.084;7.478;2023-04-10T02:05:54;76.60;;;53.60;;
15096;SDS011;7649;52.084;7.478;2023-04-10T02:08:25;79.10;;;55.20;;
15096;SDS011;7649;52.084;7.478;2023-04-10T02:10:55;75.53;;;54.67;;
15096;SDS011;7649;52.084;7.478;2023-04-10T02:13:25;75.67;;;53.27;;
15096;SDS011;7649;52.084;7.478;2023-04-10T02:15:55;75.67;;;54.10;;
15096;SDS011;7649;52.084;7.478;2023-04-10T02:18:27;78.13;;;54.63;;
15096;SDS011;7649;52.084;7.478;2023-04-10T02:20:57;73.07;;;53.80;;
15096;SDS011;7649;52.084;7.478;2023-04-10T02:23:26;76.07;;;53.53;;
15096;SDS011;7649;52.084;7.478;2023-04-10T02:25:54;74.23;;;52.57;;
15096;SDS011;7649;52.084;7.478;2023-04-10T02:28:23;74.43;;;52.57;;
15096;SDS011;7649;52.084;7.478;2023-04-10T02:30:52;73.63;;;52.27;;
15096;SDS011;7649;52.084;7.478;2023-04-10T02:33:20;71.10;;;52.07;;
15096;SDS011;7649;52.084;7.478;2023-04-10T02:35:51;72.93;;;52.50;;
15096;SDS011;7649;52.084;7.478;2023-04-10T02:38:19;74.70;;;52.27;;
15096;SDS011;7649;52.084;7.478;2023-04-10T02:40:48;71.83;;;52.67;;
15096;SDS011;7649;52.084;7.478;2023-04-10T02:43:16;73.47;;;53.17;;
15096;SDS011;7649;52.084;7.478;2023-04-10T02:45:44;70.57;;;52.37;;
15096;SDS011;7649;52.084;7.478;2023-04-10T02:48:13;66.20;;;50.33;;
15096;SDS011;7649;52.084;7.478;2023-04-10T02:50:41;70.87;;;51.50;;
15096;SDS011;7649;52.084;7.478;2023-04-10T02:53:14;72.80;;;52.07;;
15096;SDS011;7649;52.084;7.478;2023-04-10T02:55:42;74.20;;;52.33;;
15096;SDS011;7649;52.084;7.478;2023-04-10T02:58:11;76.23;;;53.60;;
15096;SDS011;7649;52.084;7.478;2023-04-10T03:00:40;74.80;;;52.17;;
15096;SDS011;7649;52.084;7.478;2023-04-10T03:03:08;73.27;;;51.60;;
15096;SDS011;7649;52.084;7.478;2023-04-10T03:05:37;76.60;;;54.00;;
15096;SDS011;7649;52.084;7.478;2023-04-10T03:08:05;78.17;;;54.03;;
15096;SDS011;7649;52.084;7.478;2023-04-10T03:10:35;80.07;;;53.97;;
15096;SDS011;7649;52.084;7.478;2023-04-10T03:13:03;81.87;;;55.43;;
15096;SDS011;7649;52.084;7.478;2023-04-10T03:15:31;79.83;;;54.10;;
15096;SDS011;7649;52.084;7.478;2023-04-10T03:18:00;78.87;;;54.23;;
15096;SDS011;7649;52.084;7.478;2023-04-10T03:20:28;77.93;;;53.23;;
15096;SDS011;7649;52.084;7.478;2023-04-10T03:22:57;80.30;;;54.03;;
15096;SDS011;7649;52.084;7.478;2023-04-10T03:25:25;76.20;;;52.97;;
15096;SDS011;7649;52.084;7.478;2023-04-10T03:27:55;79.83;;;52.83;;
15096;SDS011;7649;52.084;7.478;2023-04-10T03:30:24;74.77;;;53.27;;
15096;SDS011;7649;52.084;7.478;2023-04-10T03:32:52;81.43;;;53.43;;
15096;SDS011;7649;52.084;7.478;2023-04-10T03:35:22;77.20;;;53.70;;
15096;SDS011;7649;52.084;7.478;2023-04-10T03:37:50;75.83;;;53.23;;
15096;SDS011;7649;52.084;7.478;2023-04-10T03:40:18;75.20;;;52.57;;
15096;SDS011;7649;52.084;7.478;2023-04-10T03:42:46;76.50;;;53.73;;
15096;SDS011;7649;52.084;7.478;2023-04-10T03:45:16;77.60;;;52.80;;
15096;SDS011;7649;52.084;7.478;2023-04-10T03:47:45;80.67;;;53.27;;
15096;SDS011;7649;52.084;7.478;2023-04-10T03:50:13;74.27;;;51.07;;
15096;SDS011;7649;52.084;7.478;2023-04-10T03:52:41;74.47;;;52.20;;
15096;SDS011;7649;52.084;7.478;2023-04-10T03:55:14;74.67;;;51.93;;
15096;SDS011;7649;52.084;7.478;2023-04-10T03:57:44;74.03;;;52.33;;
15096;SDS011;7649;52.084;7.478;2023-04-10T04:00:13;79.60;;;52.93;;
15096;SDS011;7649;52.084;7.478;2023-04-10T04:02:42;73.20;;;51.70;;
15096;SDS011;7649;52.084;7.478;2023-04-10T04:05:11;76.30;;;51.83;;
15096;SDS011;7649;52.084;7.478;2023-04-10T04:07:40;76.40;;;51.20;;
15096;SDS011;7649;52.084;7.478;2023-04-10T04:10:08;76.70;;;52.63;;
15096;SDS011;7649;52.084;7.478;2023-04-10T04:12:36;75.73;;;51.63;;
15096;SDS011;7649;52.084;7.478;2023-04-10T04:15:05;78.63;;;52.73;;
15096;SDS011;7649;52.084;7.478;2023-04-10T04:17:33;74.93;;;50.83;;
15096;SDS011;7649;52.084;7.478;2023-04-10T04:20:04;71.93;;;51.43;;
15096;SDS011;7649;52.084;7.478;2023-04-10T04:22:32;72.73;;;51.13;;
15096;SDS011;7649;52.084;7.478;2023-04-10T04:25:00;75.43;;;50.97;;
15096;SDS011;7649;52.084;7.478;2023-04-10T04:27:33;71.67;;;50.83;;
15096;SDS011;7649;52.084;7.478;2023-04-10T04:30:02;73.50;;;49.50;;
15096;SDS011;7649;52.084;7.478;2023-04-10T04:32:31;72.67;;;51.30;;
15096;SDS011;7649;52.084;7.478;2023-04-10T04:34:59;70.17;;;51.37;;
15096;SDS011;7649;52.084;7.478;2023-04-10T04:37:29;68.83;;;48.63;;
15096;SDS011;7649;52.084;7.478;2023-04-10T04:39:57;67.00;;;49.33;;
15096;SDS011;7649;52.084;7.478;2023-04-10T04:42:25;70.93;;;50.13;;
15096;SDS011;7649;52.084;7.478;2023-04-10T04:44:53;72.57;;;49.33;;
15096;SDS011;7649;52.084;7.478;2023-04-10T04:47:22;68.30;;;49.20;;
15096;SDS011;7649;52.084;7.478;2023-04-10T04:49:50;72.53;;;50.23;;
15096;SDS011;7649;52.084;7.478;2023-04-10T04:52:18;72.23;;;50.53;;
15096;SDS011;7649;52.084;7.478;2023-04-10T04:54:48;68.27;;;49.27;;
15096;SDS011;7649;52.084;7.478;2023-04-10T04:57:16;78.10;;;55.00;;
15096;SDS011;7649;52.084;7.478;2023-04-10T04:59:45;73.73;;;51.03;;
15096;SDS011;7649;52.084;7.478;2023-04-10T05:02:13;71.90;;;50.73;;
15096;SDS011;7649;52.084;7.478;2023-04-10T05:04:42;69.93;;;49.27;;
15096;SDS011;7649;52.084;7.478;2023-04-10T05:07:10;68.77;;;49.20;;
15096;SDS011;7649;52.084;7.478;2023-04-10T05:09:38;65.00;;;48.23;;
15096;SDS011;7649;52.084;7.478;2023-04-10T05:12:08;72.03;;;50.83;;
15096;SDS011;7649;52.084;7.478;2023-04-10T05:14:36;66.27;;;46.90;;
15096;SDS011;7649;52.084;7.478;2023-04-10T05:17:04;68.77;;;47.63;;
15096;SDS011;7649;52.084;7.478;2023-04-10T05:19:32;66.67;;;47.87;;
15096;SDS011;7649;52.084;7.478;2023-04-10T05:22:01;62.70;;;46.60;;
15096;SDS011;7649;52.084;7.478;2023-04-10T05:24:29;65.77;;;48.33;;
15096;SDS011;7649;52.084;7.478;2023-04-10T05:26:57;67.23;;;46.60;;
15096;SDS011;7649;52.084;7.478;2023-04-10T05:29:27;60.53;;;44.33;;
15096;SDS011;7649;52.084;7.478;2023-04-10T05:31:56;63.70;;;44.77;;
15096;SDS011;7649;52.084;7.478;2023-04-10T05:34:24;60.37;;;43.57;;
15096;SDS011;7649;52.084;7.478;2023-04-10T05:36:52;63.00;;;44.70;;
15096;SDS011;7649;52.084;7.478;2023-04-10T05:39:24;64.80;;;45.50;;
15096;SDS011;7649;52.084;7.478;2023-04-10T05:41:52;59.00;;;43.30;;
15096;SDS011;7649;52.084;7.478;2023-04-10T05:44:21;59.77;;;43.47;;
15096;SDS011;7649;52.084;7.478;2023-04-10T05:46:50;64.40;;;43.23;;
15096;SDS011;7649;52.084;7.478;2023-04-10T05:49:19;57.67;;;41.87;;
15096;SDS011;7649;52.084;7.478;2023-04-10T05:51:47;60.10;;;42.43;;
15096;SDS011;7649;52.084;7.478;2023-04-10T05:54:17;58.57;;;41.47;;
15096;SDS011;7649;52.084;7.478;2023-04-10T05:56:45;54.93;;;40.70;;
15096;SDS011;7649;52.084;7.478;2023-04-10T05:59:13;57.67;;;40.10;;
15096;SDS011;7649;52.084;7.478;2023-04-10T06:01:42;54.67;;;39.53;;
15096;SDS011;7649;52.084;7.478;2023-04-10T06:04:13;53.80;;;40.70;;
15096;SDS011;7649;52.084;7.478;2023-04-10T06:06:41;50.93;;;36.97;;
15096;SDS011;7649;52.084;7.478;2023-04-10T06:09:09;48.73;;;36.33;;
15096;SDS011;7649;52.084;7.478;2023-04-10T06:11:38;49.97;;;35.90;;
15096;SDS011;7649;52.084;7.478;2023-04-10T06:14:06;47.47;;;34.13;;
15096;SDS011;7649;52.084;7.478;2023-04-10T06:16:34;46.33;;;33.23;;
15096;SDS011;7649;52.084;7.478;2023-04-10T06:19:03;45.73;;;34.13;;
15096;SDS011;7649;52.084;7.478;2023-04-10T06:21:33;42.30;;;32.20;;
15096;SDS011;7649;52.084;7.478;2023-04-10T06:24:01;40.53;;;30.07;;
15096;SDS011;7649;52.084;7.478;2023-04-10T06:26:29;41.00;;;29.97;;
15096;SDS011;7649;52.084;7.478;2023-04-10T06:28:58;37.63;;;29.17;;
15096;SDS011;7649;52.084;7.478;2023-04-10T06:31:26;37.57;;;28.43;;
15096;SDS011;7649;52.084;7.478;2023-04-10T06:33:55;33.87;;;27.30;;
15096;SDS011;7649;52.084;7.478;2023-04-10T06:36:23;32.07;;;25.67;;
15096;SDS011;7649;52.084;7.478;2023-04-10T06:38:53;31.47;;;24.63;;
15096;SDS011;7649;52.084;7.478;2023-04-10T06:41:22;32.03;;;24.20;;
15096;SDS011;7649;52.084;7.478;2023-04-10T06:43:50;29.90;;;24.07;;
15096;SDS011;7649;52.084;7.478;2023-04-10T06:46:19;32.33;;;23.60;;
15096;SDS011;7649;52.084;7.478;2023-04-10T06:48:47;26.90;;;22.93;;
15096;SDS011;7649;52.084;7.478;2023-04-10T06:51:16;25.87;;;21.20;;
15096;SDS011;7649;52.084;7.478;2023-04-10T06:53:44;24.13;;;19.93;;
15096;SDS011;7649;52.084;7.478;2023-04-10T06:56:14;26.17;;;19.67;;
15096;SDS011;7649;52.084;7.478;2023-04-10T06:58:42;24.43;;;18.87;;
15096;SDS011;7649;52.084;7.478;2023-04-10T07:01:11;25.93;;;18.27;;
15096;SDS011;7649;52.084;7.478;2023-04-10T07:03:39;23.77;;;17.57;;
15096;SDS011;7649;52.084;7.478;2023-04-10T07:06:08;21.43;;;16.80;;
15096;SDS011;7649;52.084;7.478;2023-04-10T07:08:37;19.30;;;15.30;;
15096;SDS011;7649;52.084;7.478;2023-04-10T07:11:05;19.83;;;16.87;;
15096;SDS011;7649;52.084;7.478;2023-04-10T07:13:35;20.40;;;16.53;;
15096;SDS011;7649;52.084;7.478;2023-04-10T07:16:05;20.00;;;15.57;;
15096;SDS011;7649;52.084;7.478;2023-04-10T07:18:35;20.83;;;16.20;;
15096;SDS011;7649;52.084;7.478;2023-04-10T07:21:09;20.63;;;16.23;;
15096;SDS011;7649;52.084;7.478;2023-04-10T07:23:38;20.33;;;16.43;;
15096;SDS011;7649;52.084;7.478;2023-04-10T07:26:07;18.80;;;15.60;;
15096;SDS011;7649;52.084;7.478;2023-04-10T07:28:37;19.53;;;15.20;;
15096;SDS011;7649;52.084;7.478;2023-04-10T07:31:05;17.73;;;14.53;;
15096;SDS011;7649;52.084;7.478;2023-04-10T07:33:35;16.90;;;13.13;;
15096;SDS011;7649;52.084;7.478;2023-04-10T07:36:04;14.07;;;12.57;;
15096;SDS011;7649;52.084;7.478;2023-04-10T07:38:33;14.17;;;12.40;;
15096;SDS011;7649;52.084;7.478;2023-04-10T07:41:01;12.87;;;11.57;;
15096;SDS011;7649;52.084;7.478;2023-04-10T07:43:30;13.23;;;11.83;;
15096;SDS011;7649;52.084;7.478;2023-04-10T07:46:00;13.73;;;11.33;;
15096;SDS011;7649;52.084;7.478;2023-04-10T07:48:28;13.53;;;11.50;;
15096;SDS011;7649;52.084;7.478;2023-04-10T07:50:57;13.20;;;11.20;;
15096;SDS011;7649;52.084;7.478;2023-04-10T07:53:25;12.33;;;10.70;;
15096;SDS011;7649;52.084;7.478;2023-04-10T07:55:54;10.20;;;9.20;;
15096;SDS011;7649;52.084;7.478;2023-04-10T07:58:22;11.70;;;10.43;;
15096;SDS011;7649;52.084;7.478;2023-04-10T08:00:51;10.63;;;9.53;;
15096;SDS011;7649;52.084;7.478;2023-04-10T08:03:21;12.00;;;10.10;;
15096;SDS011;7649;52.084;7.478;2023-04-10T08:05:49;11.43;;;9.60;;
15096;SDS011;7649;52.084;7.478;2023-04-10T08:08:18;10.13;;;8.97;;
15096;SDS011;7649;52.084;7.478;2023-04-10T08:10:47;10.03;;;9.03;;
15096;SDS011;7649;52.084;7.478;2023-04-10T08:13:15;10.20;;;9.20;;
15096;SDS011;7649;52.084;7.478;2023-04-10T08:15:43;10.43;;;9.33;;
15096;SDS011;7649;52.084;7.478;2023-04-10T08:18:12;10.07;;;9.07;;
15096;SDS011;7649;52.084;7.478;2023-04-10T08:20:41;9.90;;;8.90;;
15096;SDS011;7649;52.084;7.478;2023-04-10T08:23:10;9.80;;;8.77;;
15096;SDS011;7649;52.084;7.478;2023-04-10T08:25:46;10.00;;;9.00;;
15096;SDS011;7649;52.084;7.478;2023-04-10T08:28:14;10.03;;;9.03;;
15096;SDS011;7649;52.084;7.478;2023-04-10T08:30:42;9.70;;;8.80;;
15096;SDS011;7649;52.084;7.478;2023-04-10T08:33:11;9.20;;;8.30;;
15096;SDS011;7649;52.084;7.478;2023-04-10T08:35:39;9.00;;;8.10;;
15096;SDS011;7649;52.084;7.478;2023-04-10T08:38:08;9.13;;;8.20;;
15096;SDS011;7649;52.084;7.478;2023-04-10T08:40:40;9.43;;;8.50;;
15096;SDS011;7649;52.084;7.478;2023-04-10T08:43:10;9.30;;;8.30;;
15096;SDS011;7649;52.084;7.478;2023-04-10T08:45:39;9.20;;;8.20;;
15096;SDS011;7649;52.084;7.478;2023-04-10T08:48:07;9.00;;;7.63;;
15096;SDS011;7649;52.084;7.478;2023-04-10T08:50:39;8.80;;;7.90;;
15096;SDS011;7649;52.084;7.478;2023-04-10T08:53:09;8.47;;;7.47;;
15096;SDS011;7649;52.084;7.478;2023-04-10T08:55:38;8.47;;;7.63;;
15096;SDS011;7649;52.084;7.478;2023-04-10T08:58:07;7.83;;;7.03;;
15096;SDS011;7649;52.084;7.478;2023-04-10T09:00:36;8.87;;;7.97;;
15096;SDS011;7649;52.084;7.478;2023-04-10T09:03:07;8.70;;;7.90;;
15096;SDS011;7649;52.084;7.478;2023-04-10T09:05:37;11.97;;;8.33;;
15096;SDS011;7649;52.084;7.478;2023-04-10T09:08:06;8.07;;;7.37;;
15096;SDS011;7649;52.084;7.478;2023-04-10T09:10:36;8.00;;;7.20;;
15096;SDS011;7649;52.084;7.478;2023-04-10T09:13:04;8.53;;;7.70;;
15096;SDS011;7649;52.084;7.478;2023-04-10T09:18:15;8.67;;;7.73;;
15096;SDS011;7649;52.084;7.478;2023-04-10T09:20:44;8.00;;;7.30;;
15096;SDS011;7649;52.084;7.478;2023-04-10T09:23:19;8.83;;;7.93;;
15096;SDS011;7649;52.084;7.478;2023-04-10T09:25:49;9.50;;;8.53;;
15096;SDS011;7649;52.084;7.478;2023-04-10T09:28:17;8.87;;;7.97;;
15096;SDS011;7649;52.084;7.478;2023-04-10T09:30:46;9.73;;;8.73;;
15096;SDS011;7649;52.084;7.478;2023-04-10T09:33:21;9.53;;;8.60;;
15096;SDS011;7649;52.084;7.478;2023-04-10T09:35:50;9.73;;;8.80;;
15096;SDS011;7649;52.084;7.478;2023-04-10T09:38:19;9.07;;;7.73;;
15096;SDS011;7649;52.084;7.478;2023-04-10T09:40:47;8.90;;;8.00;;
15096;SDS011;7649;52.084;7.478;2023-04-10T09:43:21;8.73;;;7.87;;
15096;SDS011;7649;52.084;7.478;2023-04-10T09:45:50;8.60;;;7.80;;
15096;SDS011;7649;52.084;7.478;2023-04-10T09:48:18;7.73;;;7.00;;
15096;SDS011;7649;52.084;7.478;2023-04-10T09:50:47;8.00;;;7.20;;
15096;SDS011;7649;52.084;7.478;2023-04-10T09:53:16;6.33;;;5.50;;
15096;SDS011;7649;52.084;7.478;2023-04-10T09:55:45;5.80;;;5.30;;
15096;SDS011;7649;52.084;7.478;2023-04-10T09:58:14;5.43;;;4.97;;
15096;SDS011;7649;52.084;7.478;2023-04-10T10:00:47;4.23;;;3.90;;
15096;SDS011;7649;52.084;7.478;2023-04-10T10:03:16;3.40;;;2.90;;
15096;SDS011;7649;52.084;7.478;2023-04-10T10:05:46;3.20;;;2.90;;
15096;SDS011;7649;52.084;7.478;2023-04-10T10:08:15;3.03;;;2.83;;
15096;SDS011;7649;52.084;7.478;2023-04-10T10:10:45;5.30;;;3.17;;
15096;SDS011;7649;52.084;7.478;2023-04-10T10:13:14;3.37;;;3.00;;
15096;SDS011;7649;52.084;7.478;2023-04-10T10:15:48;3.33;;;3.03;;
15096;SDS011;7649;52.084;7.478;2023-04-10T10:18:19;3.10;;;2.90;;
15096;SDS011;7649;52.084;7.478;2023-04-10T10:20:49;3.47;;;3.17;;
15096;SDS011;7649;52.084;7.478;2023-04-10T10:23:18;3.40;;;3.10;;
15096;SDS011;7649;52.084;7.478;2023-04-10T10:25:46;3.37;;;3.17;;
15096;SDS011;7649;52.084;7.478;2023-04-10T10:28:15;3.50;;;3.20;;
15096;SDS011;7649;52.084;7.478;2023-04-10T10:30:45;3.30;;;3.10;;
15096;SDS011;7649;52.084;7.478;2023-04-10T10:33:16;3.40;;;3.10;;
15096;SDS011;7649;52.084;7.478;2023-04-10T10:35:44;3.03;;;2.83;;
15096;SDS011;7649;52.084;7.478;2023-04-10T10:38:13;3.23;;;2.97;;
15096;SDS011;7649;52.084;7.478;2023-04-10T10:40:43;3.37;;;2.60;;
15096;SDS011;7649;52.084;7.478;2023-04-10T10:43:14;3.00;;;2.80;;
15096;SDS011;7649;52.084;7.478;2023-04-10T10:45:45;3.13;;;2.83;;
15096;SDS011;7649;52.084;7.478;2023-04-10T10:48:18;2.80;;;2.60;;
15096;SDS011;7649;52.084;7.478;2023-04-10T10:50:50;3.60;;;2.50;;
15096;SDS011;7649;52.084;7.478;2023-04-10T10:53:32;2.83;;;2.63;;
15096;SDS011;7649;52.084;7.478;2023-04-10T10:58:47;2.70;;;2.50;;
15096;SDS011;7649;52.084;7.478;2023-04-10T11:01:15;2.60;;;2.40;;
15096;SDS011;7649;52.084;7.478;2023-04-10T11:03:45;2.80;;;2.60;;
15096;SDS011;7649;52.084;7.478;2023-04-10T11:06:14;2.50;;;2.30;;
15096;SDS011;7649;52.084;7.478;2023-04-10T11:08:45;2.50;;;2.30;;
15096;SDS011;7649;52.084;7.478;2023-04-10T11:11:15;2.70;;;2.60;;
15096;SDS011;7649;52.084;7.478;2023-04-10T11:16:40;2.90;;;2.70;;
15096;SDS011;7649;52.084;7.478;2023-04-10T11:19:11;2.37;;;2.27;;
15096;SDS011;7649;52.084;7.478;2023-04-10T11:21:58;2.63;;;2.43;;
15096;SDS011;7649;52.084;7.478;2023-04-10T11:24:28;2.87;;;2.67;;
15096;SDS011;7649;52.084;7.478;2023-04-10T11:26:56;2.20;;;2.10;;
15096;SDS011;7649;52.084;7.478;2023-04-10T11:29:33;2.30;;;2.20;;
15096;SDS011;7649;52.084;7.478;2023-04-10T11:32:02;2.35;;;2.25;;
15096;SDS011;7649;52.084;7.478;2023-04-10T11:34:32;2.70;;;2.50;;
15096;SDS011;7649;52.084;7.478;2023-04-10T11:37:01;2.57;;;2.43;;
15096;SDS011;7649;52.084;7.478;2023-04-10T11:39:29;2.47;;;2.25;;
15096;SDS011;7649;52.084;7.478;2023-04-10T11:41:58;2.70;;;2.50;;
15096;SDS011;7649;52.084;7.478;2023-04-10T11:44:28;2.60;;;2.43;;
15096;SDS011;7649;52.084;7.478;2023-04-10T11:46:57;2.75;;;2.50;;
15096;SDS011;7649;52.084;7.478;2023-04-10T11:49:25;2.53;;;2.35;;
15096;SDS011;7649;52.084;7.478;2023-04-10T11:51:55;2.83;;;2.63;;
15096;SDS011;7649;52.084;7.478;2023-04-10T11:54:24;2.70;;;2.50;;
15096;SDS011;7649;52.084;7.478;2023-04-10T11:56:56;7.00;;;2.20;;
15096;SDS011;7649;52.084;7.478;2023-04-10T11:59:26;2.47;;;2.33;;
15096;SDS011;7649;52.084;7.478;2023-04-10T12:02:03;3.28;;;2.97;;
15096;SDS011;7649;52.084;7.478;2023-04-10T12:04:32;2.43;;;2.33;;
15096;SDS011;7649;52.084;7.478;2023-04-10T12:07:02;2.53;;;2.28;;
15096;SDS011;7649;52.084;7.478;2023-04-10T12:09:30;2.83;;;2.22;;
15096;SDS011;7649;52.084;7.478;2023-04-10T12:11:59;4.80;;;2.47;;
15096;SDS011;7649;52.084;7.478;2023-04-10T12:14:28;2.67;;;2.45;;
15096;SDS011;7649;52.084;7.478;2023-04-10T12:16:58;2.20;;;2.10;;
15096;SDS011;7649;52.084;7.478;2023-04-10T12:19:26;2.38;;;1.95;;
15096;SDS011;7649;52.084;7.478;2023-04-10T12:21:54;2.30;;;2.10;;
15096;SDS011;7649;52.084;7.478;2023-04-10T12:24:43;2.28;;;2.08;;
15096;SDS011;7649;52.084;7.478;2023-04-10T12:27:15;2.10;;;1.90;;
15096;SDS011;7649;52.084;7.478;2023-04-10T12:29:43;2.40;;;2.15;;
15096;SDS011;7649;52.084;7.478;2023-04-10T12:32:12;2.70;;;2.15;;
15096;SDS011;7649;52.084;7.478;2023-04-10T12:34:41;2.03;;;1.90;;
15096;SDS011;7649;52.084;7.478;2023-04-10T12:37:09;3.15;;;2.38;;
15096;SDS011;7649;52.084;7.478;2023-04-10T12:39:37;2.33;;;2.10;;
15096;SDS011;7649;52.084;7.478;2023-04-10T12:42:17;2.20;;;2.00;;
15096;SDS011;7649;52.084;7.478;2023-04-10T12:44:49;2.63;;;2.40;;
15096;SDS011;7649;52.084;7.478;2023-04-10T12:47:17;2.17;;;2.05;;
15096;SDS011;7649;52.084;7.478;2023-04-10T12:52:29;2.40;;;2.20;;
15096;SDS011;7649;52.084;7.478;2023-04-10T12:55:07;2.08;;;1.98;;
15096;SDS011;7649;52.084;7.478;2023-04-10T12:57:36;2.13;;;1.90;;
15096;SDS011;7649;52.084;7.478;2023-04-10T13:00:05;5.57;;;2.13;;
15096;SDS011;7649;52.084;7.478;2023-04-10T13:02:34;3.38;;;2.10;;
15096;SDS011;7649;52.084;7.478;2023-04-10T13:05:04;2.63;;;2.20;;
15096;SDS011;7649;52.084;7.478;2023-04-10T13:07:32;2.88;;;2.50;;
15096;SDS011;7649;52.084;7.478;2023-04-10T13:10:01;3.25;;;2.40;;
15096;SDS011;7649;52.084;7.478;2023-04-10T13:12:30;2.15;;;2.00;;
15096;SDS011;7649;52.084;7.478;2023-04-10T13:15:01;2.33;;;2.17;;
15096;SDS011;7649;52.084;7.478;2023-04-10T13:17:29;7.18;;;2.10;;
15096;SDS011;7649;52.084;7.478;2023-04-10T13:19:58;9.73;;;2.70;;
15096;SDS011;7649;52.084;7.478;2023-04-10T13:22:26;2.13;;;2.03;;
15096;SDS011;7649;52.084;7.478;2023-04-10T13:24:54;3.10;;;2.13;;
15096;SDS011;7649;52.084;7.478;2023-04-10T13:27:22;2.83;;;2.28;;
15096;SDS011;7649;52.084;7.478;2023-04-10T13:29:51;2.47;;;2.22;;
15096;SDS011;7649;52.084;7.478;2023-04-10T13:32:20;2.80;;;2.10;;
15096;SDS011;7649;52.084;7.478;2023-04-10T13:34:49;2.10;;;2.00;;
15096;SDS011;7649;52.084;7.478;2023-04-10T13:37:17;2.35;;;2.25;;
15096;SDS011;7649;52.084;7.478;2023-04-10T13:39:45;2.70;;;2.50;;
15096;SDS011;7649;52.084;7.478;2023-04-10T13:42:14;2.83;;;2.50;;
15096;SDS011;7649;52.084;7.478;2023-04-10T13:44:42;3.20;;;1.98;;
15096;SDS011;7649;52.084;7.478;2023-04-10T13:47:10;2.40;;;2.20;;
15096;SDS011;7649;52.084;7.478;2023-04-10T13:49:40;3.58;;;2.20;;
15096;SDS011;7649;52.084;7.478;2023-04-10T13:52:08;4.30;;;2.53;;
15096;SDS011;7649;52.084;7.478;2023-04-10T13:54:36;2.80;;;2.60;;
15096;SDS011;7649;52.084;7.478;2023-04-10T13:57:05;2.97;;;2.20;;
15096;SDS011;7649;52.084;7.478;2023-04-10T13:59:33;2.45;;;2.25;;
15096;SDS011;7649;52.084;7.478;2023-04-10T14:02:01;2.75;;;2.55;;
15096;SDS011;7649;52.084;7.478;2023-04-10T14:04:29;5.03;;;2.60;;
15096;SDS011;7649;52.084;7.478;2023-04-10T14:07:00;3.42;;;2.53;;
15096;SDS011;7649;52.084;7.478;2023-04-10T14:09:28;2.65;;;2.45;;
15096;SDS011;7649;52.084;7.478;2023-04-10T14:11:57;2.70;;;2.50;;
15096;SDS011;7649;52.084;7.478;2023-04-10T14:14:25;2.40;;;2.28;;
15096;SDS011;7649;52.084;7.478;2023-04-10T14:16:53;2.20;;;2.10;;
15096;SDS011;7649;52.084;7.478;2023-04-10T14:19:21;2.60;;;2.28;;
15096;SDS011;7649;52.084;7.478;2023-04-10T14:21:49;2.47;;;2.00;;
15096;SDS011;7649;52.084;7.478;2023-04-10T14:24:19;11.18;;;2.60;;
15096;SDS011;7649;52.084;7.478;2023-04-10T14:26:47;2.47;;;2.33;;
15096;SDS011;7649;52.084;7.478;2023-04-10T14:29:17;3.47;;;2.40;;
15096;SDS011;7649;52.084;7.478;2023-04-10T14:31:58;3.15;;;2.90;;
15096;SDS011;7649;52.084;7.478;2023-04-10T14:34:26;2.60;;;2.45;;
15096;SDS011;7649;52.084;7.478;2023-04-10T14:36:55;2.50;;;2.30;;
15096;SDS011;7649;52.084;7.478;2023-04-10T14:39:25;2.60;;;2.40;;
15096;SDS011;7649;52.084;7.478;2023-04-10T14:41:53;2.83;;;2.50;;
15096;SDS011;7649;52.084;7.478;2023-04-10T14:44:22;2.28;;;2.13;;
15096;SDS011;7649;52.084;7.478;2023-04-10T14:46:50;2.60;;;2.40;;
15096;SDS011;7649;52.084;7.478;2023-04-10T14:49:18;2.72;;;2.53;;
15096;SDS011;7649;52.084;7.478;2023-04-10T14:51:47;2.20;;;2.10;;
15096;SDS011;7649;52.084;7.478;2023-04-10T14:54:15;2.10;;;2.00;;
15096;SDS011;7649;52.084;7.478;2023-04-10T14:56:48;3.40;;;2.10;;
15096;SDS011;7649;52.084;7.478;2023-04-10T14:59:16;2.43;;;2.23;;
15096;SDS011;7649;52.084;7.478;2023-04-10T15:01:44;1.97;;;1.87;;
15096;SDS011;7649;52.084;7.478;2023-04-10T15:04:13;2.60;;;2.40;;
15096;SDS011;7649;52.084;7.478;2023-04-10T15:06:42;2.53;;;2.30;;
15096;SDS011;7649;52.084;7.478;2023-04-10T15:09:10;2.57;;;2.37;;
15096;SDS011;7649;52.084;7.478;2023-04-10T15:11:38;3.10;;;2.80;;